Data for 10/23/2018

Time Sea-Level Adjusted Pressure Absolute Pressure Temperature Relative Humidity Dew Point   
(mb) (inHg) (mb) (inHg) (C) (F) (%) (C) (F)
00:05 1021 30.15 850 25.1 8.3 46.9 41 -4.1 24.6
00:10 1021 30.15 850 25.1 8.2 46.8 42 -4 24.8
00:15 1021 30.15 850 25.1 8.2 46.8 41 -4.1 24.7
00:20 1021 30.15 850 25.1 8.2 46.7 42 -4 24.7
00:25 1021 30.15 850 25.1 8.1 46.7 42 -4.1 24.7
00:30 1021 30.15 850 25.1 8 46.5 42 -4.1 24.6
00:35 1021 30.15 850 25.1 7.9 46.2 42 -4.1 24.6
00:40 1021 30.15 850 25.1 7.8 46 43 -4.1 24.7
00:45 1021 30.15 850 25.1 7.6 45.6 44 -4 24.7
00:50 1021 30.15 850 25.1 7.4 45.4 44 -4 24.7
00:55 1021 30.15 850 25.1 7.4 45.3 44 -4 24.7
01:00 1021 30.15 850 25.1 7.3 45.1 44 -4 24.7
01:05 1021 30.15 850 25.1 7.3 45.2 44 -4.1 24.6
01:10 1021 30.15 850 25.1 7.3 45.1 44 -4.1 24.6
01:15 1021 30.15 850 25.1 7.4 45.2 44 -4 24.8
01:20 1021 30.15 850 25.1 7.4 45.3 44 -4.1 24.6
01:25 1021 30.15 850 25.1 7.4 45.4 44 -4 24.7
01:30 1021 30.15 850 25.1 7.4 45.4 44 -3.9 25
01:35 1021 30.15 850 25.1 7.3 45.2 44 -4 24.8
01:40 1021 30.15 850 25.1 7.3 45.2 44 -4 24.8
01:45 1021 30.15 850 25.1 7.3 45.1 45 -3.9 25
01:50 1021 30.15 850 25.1 7 44.7 46 -3.9 25
01:55 1021 30.15 850 25.1 6.9 44.5 46 -3.8 25.1
02:00 1021 30.15 850 25.1 7 44.6 46 -3.8 25.2
02:05 1021 30.15 850 25.1 7 44.6 46 -3.7 25.3
02:10 1021 30.15 850 25.1 7 44.6 47 -3.6 25.4
02:15 1021 30.15 850 25.1 6.9 44.4 47 -3.6 25.6
02:20 1021 30.15 850 25.1 6.8 44.2 47 -3.6 25.4
02:25 1021 30.15 850 25.1 6.8 44.2 48 -3.5 25.6
02:30 1021 30.15 850 25.1 6.7 44 48 -3.5 25.7
02:35 1021 30.15 850 25.1 6.6 43.9 48 -3.6 25.6
02:40 1021 30.15 850 25.1 6.6 43.8 48 -3.5 25.7
02:45 1021 30.15 850 25.1 6.6 43.8 48 -3.5 25.6
02:50 1021 30.15 850 25.1 6.6 43.9 49 -3.4 25.9
02:55 1021 30.15 850 25.1 6.5 43.8 50 -3.2 26.2
03:00 1020 30.12 850 25.1 6.2 43.2 52 -2.9 26.7
03:05 1020 30.12 850 25.1 5.6 42 54 -3.1 26.5
03:10 1020 30.12 850 25.1 5.7 42.3 52 -3.3 26
03:15 1020 30.12 850 25.1 6 42.9 51 -3.4 25.9
03:20 1020 30.12 850 25.1 6.4 43.5 49 -3.5 25.8
03:25 1020 30.12 850 25.1 6.5 43.6 50 -3.2 26.2
03:30 1020 30.12 850 25.1 6.2 43.2 51 -3.2 26.3
03:35 1020 30.12 850 25.1 5.7 42.3 54 -2.9 26.9
03:40 1020 30.12 849 25.07 5.4 41.7 54 -3.2 26.2
03:45 1020 30.12 849 25.07 5.6 42.1 53 -3.2 26.2
03:50 1020 30.12 849 25.07 5.4 41.8 55 -2.9 26.7
03:55 1020 30.12 849 25.07 5.3 41.5 55 -3 26.6
04:00 1020 30.12 849 25.07 5.2 41.4 56 -2.9 26.7
04:05 1020 30.12 849 25.07 4.9 40.9 57 -2.8 26.9
04:10 1020 30.12 849 25.07 4.7 40.5 59 -2.6 27.3
04:15 1020 30.12 849 25.07 4.7 40.5 59 -2.7 27.2
04:20 1020 30.12 849 25.07 4.7 40.4 59 -2.6 27.3
04:25 1020 30.12 849 25.07 4.4 40 60 -2.7 27.2
04:30 1020 30.12 849 25.07 4.4 39.9 59 -2.9 26.7
04:35 1020 30.12 849 25.07 4.6 40.3 59 -2.8 27
04:40 1020 30.12 849 25.07 4.6 40.3 59 -2.7 27.1
04:45 1020 30.12 849 25.07 4.6 40.2 59 -2.7 27.1
04:50 1020 30.12 849 25.07 4.5 40.2 59 -2.8 27
04:55 1020 30.12 849 25.07 4.6 40.3 59 -2.8 27
05:00 1020 30.12 849 25.07 4.5 40.1 60 -2.6 27.3
05:05 1020 30.12 849 25.07 4.3 39.7 60 -2.7 27.1
05:10 1020 30.12 849 25.07 4.4 39.9 60 -2.8 27
05:15 1020 30.12 849 25.07 4.6 40.3 60 -2.6 27.3
05:20 1020 30.12 849 25.07 4.5 40.1 60 -2.7 27.1
05:25 1020 30.12 849 25.07 4.7 40.4 58 -2.8 27
05:30 1020 30.12 849 25.07 4.6 40.3 59 -2.6 27.3
05:35 1020 30.12 849 25.07 4.4 39.9 61 -2.5 27.5
05:40 1020 30.12 849 25.07 4.2 39.6 62 -2.5 27.5
05:45 1020 30.12 849 25.07 4.3 39.7 62 -2.3 27.8
05:50 1020 30.12 849 25.07 4.1 39.3 62 -2.6 27.2
05:55 1020 30.12 849 25.07 4 39.2 63 -2.5 27.6
06:00 1020 30.12 849 25.07 3.9 39 62 -2.7 27.1
06:05 1020 30.12 849 25.07 4.1 39.4 61 -2.7 27.1
06:10 1020 30.12 849 25.07 4.3 39.7 61 -2.6 27.3
06:15 1020 30.12 849 25.07 4.3 39.8 60 -2.6 27.2
06:20 1020 30.12 849 25.07 4.1 39.3 63 -2.2 28
06:25 1020 30.12 849 25.07 3.6 38.4 66 -2.2 28.1
06:30 1020 30.12 849 25.07 3.3 37.9 67 -2.2 28
06:35 1020 30.12 849 25.07 3.2 37.7 69 -1.9 28.6
06:40 1020 30.12 849 25.07 3.8 38.8 64 -2.5 27.5
06:45 1020 30.12 849 25.07 4 39.1 62 -2.6 27.2
06:50 1020 30.12 849 25.07 4 39.2 62 -2.6 27.3
06:55 1020 30.12 849 25.07 4 39.2 62 -2.6 27.3
07:00 1020 30.12 849 25.07 3.9 39 62 -2.6 27.2
07:05 1020 30.12 849 25.07 3.9 39 62 -2.7 27.2
07:10 1020 30.12 849 25.07 3.6 38.5 65 -2.4 27.6
07:15 1020 30.12 849 25.07 3.4 38.1 65 -2.7 27.2
07:20 1020 30.12 849 25.07 3.7 38.7 63 -2.6 27.3
07:25 1020 30.12 849 25.07 4.2 39.5 62 -2.5 27.4
07:30 1020 30.12 849 25.07 4.6 40.2 60 -2.4 27.6
07:35 1020 30.12 849 25.07 4.7 40.4 60 -2.3 27.8
07:40 1020 30.12 849 25.07 4.8 40.6 60 -2.4 27.7
07:45 1020 30.12 849 25.07 5 41 59 -2.3 27.8
07:50 1020 30.12 849 25.07 4.9 40.8 60 -2.3 27.8
07:55 1020 30.12 849 25.07 4.9 40.9 59 -2.3 27.9
08:00 1020 30.12 849 25.07 4.9 40.8 60 -2.2 28.1
08:05 1020 30.12 849 25.07 4.7 40.5 60 -2.4 27.7
08:10 1020 30.12 849 25.07 5 41.1 59 -2.4 27.7
08:15 1020 30.12 849 25.07 5.5 41.8 58 -2.2 28
08:20 1020 30.12 849 25.07 5.8 42.4 56 -2.2 28.1
08:25 1020 30.12 849 25.07 6.3 43.4 55 -2 28.3
08:30 1020 30.12 849 25.07 6.5 43.6 55 -2 28.4
08:35 1020 30.12 849 25.07 6.8 44.2 54 -1.9 28.6
08:40 1020 30.12 849 25.07 7.2 44.9 53 -1.8 28.7
08:45 1020 30.12 849 25.07 7.3 45.2 52 -1.9 28.7
08:50 1020 30.12 849 25.07 7.8 46.1 50 -2 28.4
08:55 1020 30.12 849 25.07 8 46.3 49 -2 28.4
09:00 1020 30.12 849 25.07 7.9 46.2 50 -2 28.5
09:05 1020 30.12 849 25.07 8.3 46.9 48 -2 28.5
09:10 1020 30.12 849 25.07 8.5 47.3 49 -1.6 29.2
09:15 1020 30.12 849 25.07 8.6 47.4 48 -1.7 29
09:20 1020 30.12 849 25.07 8.6 47.4 49 -1.5 29.3
09:25 1020 30.12 849 25.07 8.7 47.6 50 -1.1 30.1
09:30 1020 30.12 849 25.07 8.9 48.1 49 -1.1 30
09:35 1020 30.12 849 25.07 9.5 49.1 47 -1.3 29.7
09:40 1019 30.09 849 25.07 9.6 49.3 46 -1.3 29.7
09:45 1019 30.09 849 25.07 9.2 48.5 46 -1.7 28.9
09:50 1019 30.09 849 25.07 9.8 49.6 44 -1.8 28.7
09:55 1019 30.09 849 25.07 10 50 44 -1.5 29.3
10:00 1019 30.09 849 25.07 10 49.9 44 -1.8 28.7
10:05 1019 30.09 849 25.07 10 50 45 -1.2 29.8
10:10 1020 30.12 849 25.07 9.7 49.4 45 -1.7 28.9
10:15 1020 30.12 849 25.07 9.8 49.6 45 -1.6 29.2
10:20 1020 30.12 849 25.07 9.8 49.7 45 -1.4 29.4
10:25 1020 30.12 849 25.07 9.9 49.9 45 -1.5 29.2
10:30 1020 30.12 849 25.07 10.4 50.8 43 -1.6 29.1
10:35 1019 30.09 849 25.07 10.5 51 45 -1 30.3
10:40 1019 30.09 849 25.07 10.4 50.7 46 -0.8 30.6
10:45 1019 30.09 849 25.07 10.2 50.4 46 -0.9 30.4
10:50 1019 30.09 849 25.07 10.3 50.5 46 -0.9 30.4
10:55 1019 30.09 849 25.07 10.4 50.6 45 -1 30.2
11:00 1019 30.09 849 25.07 10.5 51 45 -0.9 30.3
11:05 1019 30.09 849 25.07 11 51.7 44 -0.8 30.6
11:10 1019 30.09 849 25.07 11.4 52.6 42 -1 30.2
11:15 1019 30.09 849 25.07 11.3 52.4 45 -0.1 31.7
11:20 1019 30.09 849 25.07 11.3 52.4 43 -0.8 30.6
11:25 1019 30.09 849 25.07 11.4 52.6 43 -0.6 30.9
11:30 1019 30.09 849 25.07 11.1 52 43 -0.9 30.4
11:35 1019 30.09 848 25.04 11 51.8 43 -1 30.2
11:40 1019 30.09 848 25.04 10.9 51.6 44 -1 30.3
11:45 1019 30.09 848 25.04 10.4 50.8 44 -1.4 29.5
11:50 1019 30.09 848 25.04 11 51.8 42 -1.4 29.5
11:55 1019 30.09 848 25.04 11.2 52.1 43 -1 30.2
12:00 1019 30.09 848 25.04 10.9 51.7 44 -0.9 30.3
12:05 1019 30.09 848 25.04 11.8 53.2 39 -1.5 29.3
12:10 1019 30.09 848 25.04 12.4 54.3 38 -1.4 29.4
12:15 1019 30.09 848 25.04 12.3 54.2 38 -1.4 29.5
12:20 1019 30.09 848 25.04 12.3 54.2 40 -0.9 30.4
12:25 1019 30.09 848 25.04 12.1 53.7 37 -2 28.4
12:30 1018 30.06 848 25.04 12.3 54.2 37 -1.8 28.7
12:35 1018 30.06 848 25.04 13.1 55.5 35 -1.8 28.7
12:40 1018 30.06 848 25.04 13.5 56.3 34 -2 28.4
12:45 1018 30.06 848 25.04 13 55.3 35 -1.9 28.6
12:50 1018 30.06 848 25.04 12.7 54.9 35 -2.1 28.2
12:55 1018 30.06 847 25.01 12.3 54.1 36 -2.5 27.6
13:00 1018 30.06 847 25.01 12.5 54.5 33 -3.1 26.4
13:05 1018 30.06 847 25.01 13.3 55.9 33 -2.7 27.2
13:10 1018 30.06 847 25.01 13.6 56.4 33 -2.5 27.5
13:15 1018 30.06 847 25.01 13.4 56.2 34 -2.2 28.1
13:20 1018 30.06 847 25.01 13.5 56.3 33 -2.5 27.5
13:25 1018 30.06 847 25.01 13.8 56.9 32 -2.4 27.7
13:30 1018 30.06 847 25.01 14.1 57.4 32 -2.1 28.2
13:35 1018 30.06 847 25.01 14.7 58.4 32 -1.6 29.1
13:40 1018 30.06 847 25.01 14.8 58.6 32 -1.8 28.7
13:45 1018 30.06 847 25.01 14.9 58.7 32 -1.6 29.1
13:50 1018 30.06 847 25.01 15.2 59.3 31 -1.6 29
13:55 1018 30.06 847 25.01 15.2 59.3 31 -1.7 28.9
14:00 1018 30.06 847 25.01 14.9 58.9 32 -1.7 28.9
14:05 1018 30.06 847 25.01 15.3 59.5 31 -1.5 29.3
14:10 1018 30.06 847 25.01 15.1 59.3 32 -1.5 29.2
14:15 1018 30.06 847 25.01 15.3 59.5 31 -1.8 28.8
14:20 1018 30.06 847 25.01 15.6 60.2 31 -1.5 29.4
14:25 1018 30.06 847 25.01 15.8 60.4 30 -1.7 29
14:30 1018 30.06 847 25.01 15.2 59.4 33 -1 30.1
14:35 1018 30.06 847 25.01 14.6 58.2 34 -1.2 29.8
14:40 1018 30.06 847 25.01 14.4 58 33 -1.4 29.4
14:45 1018 30.06 847 25.01 14.5 58.2 34 -1.1 30
14:50 1018 30.06 847 25.01 14.2 57.6 34 -1.4 29.5
14:55 1018 30.06 847 25.01 13.9 56.9 36 -1 30.2
15:00 1018 30.06 847 25.01 13.6 56.5 35 -1.4 29.5
15:05 1018 30.06 847 25.01 13.5 56.3 35 -1.5 29.2
15:10 1018 30.06 847 25.01 13.5 56.4 35 -1.6 29.2
15:15 1018 30.06 847 25.01 13.6 56.6 35 -1.4 29.5
15:20 1018 30.06 847 25.01 13.7 56.6 35 -1.4 29.5
15:25 1018 30.06 847 25.01 13.9 57.1 34 -1.6 29.1
15:30 1018 30.06 847 25.01 13.9 57 34 -1.5 29.2
15:35 1018 30.06 847 25.01 13.9 57 35 -1.2 29.8
15:40 1018 30.06 847 25.01 13.9 56.9 35 -1.1 30.1
15:45 1018 30.06 847 25.01 14 57.1 35 -1.2 29.8
15:50 1018 30.06 847 25.01 13.9 57 35 -1.3 29.6
15:55 1018 30.06 847 25.01 13.6 56.6 35 -1.3 29.7
16:00 1018 30.06 847 25.01 13.7 56.7 35 -1.5 29.3
16:05 1018 30.06 847 25.01 13.5 56.2 35 -1.5 29.3
16:10 1018 30.06 847 25.01 13.5 56.3 35 -1.4 29.4
16:15 1018 30.06 847 25.01 13.3 56 36 -1.4 29.5
16:20 1018 30.06 847 25.01 13.4 56.1 35 -1.5 29.3
16:25 1018 30.06 847 25.01 13.3 55.9 36 -1.2 29.8
16:30 1018 30.06 847 25.01 13.2 55.7 38 -0.9 30.4
16:35 1018 30.06 847 25.01 13.1 55.6 37 -1.1 30.1
16:40 1018 30.06 847 25.01 13.1 55.6 38 -1 30.3
16:45 1018 30.06 847 25.01 13 55.4 37 -1.1 29.9
16:50 1018 30.06 847 25.01 12.9 55.2 38 -1 30.2
16:55 1018 30.06 847 25.01 12.9 55.3 39 -0.7 30.8
17:00 1018 30.06 847 25.01 13 55.4 39 -0.7 30.8
17:05 1018 30.06 847 25.01 13 55.4 38 -0.8 30.5
17:10 1018 30.06 847 25.01 13 55.3 39 -0.4 31.2
17:15 1018 30.06 847 25.01 12.9 55.2 40 -0.3 31.5
17:20 1018 30.06 847 25.01 12.6 54.6 42 0.1 32.2
17:25 1018 30.06 847 25.01 12.2 54 43 0 32
17:30 1018 30.06 847 25.01 12.3 54.1 42 -0.1 31.8
17:35 1018 30.06 847 25.01 12.3 54.1 39 -1.1 30
17:40 1018 30.06 847 25.01 12.2 54 41 -0.7 30.8
17:45 1018 30.06 847 25.01 12.2 54 42 -0.2 31.6
17:50 1018 30.06 847 25.01 12 53.7 43 -0 32
17:55 1017 30.03 847 25.01 11.8 53.2 44 0.1 32.1
18:00 1017 30.03 847 25.01 11.8 53.2 44 -0 31.9
18:05 1017 30.03 847 25.01 11.7 53.1 44 0.1 32.1
18:10 1017 30.03 847 25.01 11.5 52.7 46 0.3 32.5
18:15 1017 30.03 847 25.01 11.2 52.2 46 0.2 32.3
18:20 1017 30.03 847 25.01 11.1 52.1 47 0.2 32.4
18:25 1017 30.03 847 25.01 11.1 52.1 46 0.1 32.1
18:30 1017 30.03 847 25.01 11.2 52.1 45 -0.2 31.7
18:35 1017 30.03 847 25.01 11.2 52.2 46 -0 31.9
18:40 1017 30.03 846 24.98 11.2 52.1 45 -0.2 31.6
18:45 1017 30.03 846 24.98 11.2 52.1 46 -0.1 31.9
18:50 1017 30.03 846 24.98 11.1 51.9 45 -0.2 31.6
18:55 1017 30.03 846 24.98 11 51.9 45 -0.3 31.4
19:00 1017 30.03 846 24.98 11.1 51.9 45 -0.2 31.6
19:05 1017 30.03 847 25.01 10.8 51.5 49 0.5 32.9
19:10 1017 30.03 847 25.01 10.4 50.7 51 0.7 33.2
19:15 1017 30.03 847 25.01 10.1 50.3 51 0.5 32.9
19:20 1017 30.03 846 24.98 10.1 50.2 51 0.5 33
19:25 1017 30.03 846 24.98 10.1 50.2 51 0.4 32.7
19:30 1017 30.03 847 25.01 10.2 50.3 50 0.2 32.4
19:35 1017 30.03 847 25.01 10.3 50.5 49 0.1 32.1
19:40 1017 30.03 847 25.01 10.3 50.5 49 0.1 32.2
19:45 1017 30.03 847 25.01 10.2 50.3 51 0.5 32.9
19:50 1017 30.03 846 24.98 10 50 52 0.7 33.3
19:55 1017 30.03 846 24.98 9.7 49.4 53 0.7 33.3
20:00 1017 30.03 846 24.98 9.5 49.2 54 0.6 33.1
20:05 1017 30.03 846 24.98 9.6 49.3 54 0.7 33.2
20:10 1017 30.03 846 24.98 9.7 49.4 54 0.9 33.6
20:15 1017 30.03 847 25.01 9.6 49.2 54 0.7 33.3
20:20 1017 30.03 847 25.01 9.7 49.5 53 0.6 33.1
20:25 1017 30.03 847 25.01 9.7 49.4 53 0.7 33.3
20:30 1017 30.03 847 25.01 9.5 49.2 54 0.8 33.5
20:35 1017 30.03 847 25.01 9.3 48.8 55 0.8 33.5
20:40 1017 30.03 847 25.01 9.3 48.7 55 0.8 33.4
20:45 1017 30.03 847 25.01 9.2 48.6 56 0.8 33.5
20:50 1017 30.03 847 25.01 9 48.2 56 0.7 33.3
20:55 1017 30.03 847 25.01 9 48.2 55 0.6 33.1
21:00 1017 30.03 847 25.01 9 48.2 55 0.5 32.9
21:05 1018 30.06 847 25.01 8.9 48 55 0.3 32.6
21:10 1018 30.06 847 25.01 9.1 48.3 54 0.4 32.7
21:15 1018 30.06 847 25.01 8.9 48 56 0.7 33.2
21:20 1018 30.06 847 25.01 8.9 47.9 55 0.5 32.8
21:25 1018 30.06 847 25.01 8.7 47.7 56 0.5 32.8
21:30 1018 30.06 847 25.01 8.6 47.4 57 0.4 32.8
21:35 1018 30.06 847 25.01 8.7 47.7 55 0.3 32.6
21:40 1018 30.06 847 25.01 8.8 47.8 56 0.5 32.8
21:45 1018 30.06 847 25.01 8.8 47.8 56 0.4 32.8
21:50 1018 30.06 847 25.01 8.6 47.5 56 0.4 32.7
21:55 1018 30.06 847 25.01 8.7 47.7 55 0.3 32.6
22:00 1018 30.06 847 25.01 8.7 47.7 56 0.5 32.8
22:05 1018 30.06 847 25.01 8.4 47.1 57 0.4 32.6
22:10 1018 30.06 847 25.01 8.8 47.8 55 0.2 32.3
22:15 1018 30.06 847 25.01 8.7 47.6 56 0.3 32.6
22:20 1018 30.06 847 25.01 8.7 47.6 56 0.5 32.9
22:25 1018 30.06 847 25.01 7.9 46.3 58 0.2 32.4
22:30 1018 30.06 847 25.01 8.3 46.9 57 0.3 32.5
22:35 1018 30.06 847 25.01 8.2 46.7 57 0.2 32.4
22:40 1018 30.06 847 25.01 8.5 47.3 56 0.3 32.5
22:45 1018 30.06 847 25.01 8.4 47.1 57 0.4 32.8
22:50 1018 30.06 847 25.01 8.1 46.5 58 0.3 32.6
22:55 1018 30.06 847 25.01 7.9 46.1 59 0.4 32.7
23:00 1018 30.06 847 25.01 7.7 45.8 60 0.3 32.5
23:05 1018 30.06 847 25.01 7.6 45.7 60 0.3 32.6
23:10 1018 30.06 847 25.01 7.6 45.6 60 0.3 32.6
23:15 1018 30.06 847 25.01 7.6 45.6 59 0 32
23:20 1018 30.06 847 25.01 7.8 46 58 0.1 32.2
23:25 1018 30.06 847 25.01 7.7 45.8 60 0.4 32.7
23:30 1018 30.06 847 25.01 6.8 44.3 64 0.5 32.8
23:35 1018 30.06 847 25.01 6 42.9 66 0.2 32.4
23:40 1018 30.06 847 25.01 5.8 42.5 66 0 32.1
23:45 1018 30.06 847 25.01 5.6 42.1 68 0.2 32.3
23:50 1018 30.06 847 25.01 5.2 41.3 68 -0.1 31.7
23:55 1018 30.06 847 25.01 5.6 42.1 67 -0 32
24:00 1018 30.06 847 25.01 5.7 42.3 66 -0 32